sensor_id;sensor_type;location;lat;lon;timestamp;P1;durP1;ratioP1;P2;durP2;ratioP2
43744;SDS011;29359;53.048;8.732;2023-07-31T00:01:17;9.57;;;2.38;;
43744;SDS011;29359;53.048;8.732;2023-07-31T00:03:20;8.30;;;2.00;;
43744;SDS011;29359;53.048;8.732;2023-07-31T00:05:21;6.22;;;1.88;;
43744;SDS011;29359;53.048;8.732;2023-07-31T00:07:24;4.15;;;1.83;;
43744;SDS011;29359;53.048;8.732;2023-07-31T00:09:28;9.38;;;1.88;;
43744;SDS011;29359;53.048;8.732;2023-07-31T00:11:31;7.80;;;2.08;;
43744;SDS011;29359;53.048;8.732;2023-07-31T00:13:34;4.30;;;1.70;;
43744;SDS011;29359;53.048;8.732;2023-07-31T00:15:37;1.42;;;1.30;;
43744;SDS011;29359;53.048;8.732;2023-07-31T00:17:40;2.15;;;1.30;;
43744;SDS011;29359;53.048;8.732;2023-07-31T00:19:42;8.18;;;1.88;;
43744;SDS011;29359;53.048;8.732;2023-07-31T00:21:47;3.30;;;1.25;;
43744;SDS011;29359;53.048;8.732;2023-07-31T00:23:50;4.03;;;1.35;;
43744;SDS011;29359;53.048;8.732;2023-07-31T00:25:54;4.50;;;1.40;;
43744;SDS011;29359;53.048;8.732;2023-07-31T00:27:57;5.75;;;1.23;;
43744;SDS011;29359;53.048;8.732;2023-07-31T00:29:59;4.72;;;1.60;;
43744;SDS011;29359;53.048;8.732;2023-07-31T00:32:02;3.33;;;1.30;;
43744;SDS011;29359;53.048;8.732;2023-07-31T00:34:06;4.47;;;1.60;;
43744;SDS011;29359;53.048;8.732;2023-07-31T00:36:08;4.38;;;1.40;;
43744;SDS011;29359;53.048;8.732;2023-07-31T00:38:11;2.13;;;1.40;;
43744;SDS011;29359;53.048;8.732;2023-07-31T00:40:14;5.47;;;1.52;;
43744;SDS011;29359;53.048;8.732;2023-07-31T00:42:18;8.73;;;1.65;;
43744;SDS011;29359;53.048;8.732;2023-07-31T00:44:21;3.65;;;1.63;;
43744;SDS011;29359;53.048;8.732;2023-07-31T00:46:24;3.70;;;1.50;;
43744;SDS011;29359;53.048;8.732;2023-07-31T00:48:27;7.07;;;1.40;;
43744;SDS011;29359;53.048;8.732;2023-07-31T00:50:30;3.65;;;1.55;;
43744;SDS011;29359;53.048;8.732;2023-07-31T00:52:33;4.72;;;1.73;;
43744;SDS011;29359;53.048;8.732;2023-07-31T00:54:37;4.90;;;1.45;;
43744;SDS011;29359;53.048;8.732;2023-07-31T00:56:40;7.63;;;2.22;;
43744;SDS011;29359;53.048;8.732;2023-07-31T00:58:44;5.68;;;1.52;;
43744;SDS011;29359;53.048;8.732;2023-07-31T01:00:47;3.85;;;1.50;;
43744;SDS011;29359;53.048;8.732;2023-07-31T01:02:51;2.30;;;1.33;;
43744;SDS011;29359;53.048;8.732;2023-07-31T01:04:55;4.38;;;1.60;;
43744;SDS011;29359;53.048;8.732;2023-07-31T01:07:00;4.30;;;1.50;;
43744;SDS011;29359;53.048;8.732;2023-07-31T01:09:11;4.45;;;1.55;;
43744;SDS011;29359;53.048;8.732;2023-07-31T01:11:21;1.83;;;1.42;;
43744;SDS011;29359;53.048;8.732;2023-07-31T01:15:32;4.82;;;1.50;;
43744;SDS011;29359;53.048;8.732;2023-07-31T01:17:35;4.57;;;1.55;;
43744;SDS011;29359;53.048;8.732;2023-07-31T01:19:38;4.22;;;1.80;;
43744;SDS011;29359;53.048;8.732;2023-07-31T01:21:44;2.35;;;1.38;;
43744;SDS011;29359;53.048;8.732;2023-07-31T01:24:19;6.05;;;1.60;;
43744;SDS011;29359;53.048;8.732;2023-07-31T01:26:27;1.90;;;1.45;;
43744;SDS011;29359;53.048;8.732;2023-07-31T01:28:40;2.28;;;1.30;;
43744;SDS011;29359;53.048;8.732;2023-07-31T01:30:49;3.03;;;1.42;;
43744;SDS011;29359;53.048;8.732;2023-07-31T01:32:52;4.72;;;1.33;;
43744;SDS011;29359;53.048;8.732;2023-07-31T01:34:57;5.28;;;1.85;;
43744;SDS011;29359;53.048;8.732;2023-07-31T01:37:01;2.42;;;1.10;;
43744;SDS011;29359;53.048;8.732;2023-07-31T01:39:05;4.20;;;1.52;;
43744;SDS011;29359;53.048;8.732;2023-07-31T01:41:08;2.33;;;1.30;;
43744;SDS011;29359;53.048;8.732;2023-07-31T01:43:12;6.15;;;1.25;;
43744;SDS011;29359;53.048;8.732;2023-07-31T01:45:15;7.45;;;1.45;;
43744;SDS011;29359;53.048;8.732;2023-07-31T01:47:18;3.42;;;1.17;;
43744;SDS011;29359;53.048;8.732;2023-07-31T01:49:20;11.27;;;1.52;;
43744;SDS011;29359;53.048;8.732;2023-07-31T01:51:23;2.78;;;1.33;;
43744;SDS011;29359;53.048;8.732;2023-07-31T01:53:26;3.47;;;1.42;;
43744;SDS011;29359;53.048;8.732;2023-07-31T01:55:29;3.13;;;1.42;;
43744;SDS011;29359;53.048;8.732;2023-07-31T01:57:32;2.47;;;1.60;;
43744;SDS011;29359;53.048;8.732;2023-07-31T01:59:36;2.45;;;1.30;;
43744;SDS011;29359;53.048;8.732;2023-07-31T02:01:39;2.28;;;1.42;;
43744;SDS011;29359;53.048;8.732;2023-07-31T02:03:41;2.35;;;1.30;;
43744;SDS011;29359;53.048;8.732;2023-07-31T02:05:44;3.15;;;1.30;;
43744;SDS011;29359;53.048;8.732;2023-07-31T02:07:47;3.35;;;1.55;;
43744;SDS011;29359;53.048;8.732;2023-07-31T02:09:50;1.95;;;1.67;;
43744;SDS011;29359;53.048;8.732;2023-07-31T02:11:52;2.80;;;1.10;;
43744;SDS011;29359;53.048;8.732;2023-07-31T02:13:55;2.30;;;1.40;;
43744;SDS011;29359;53.048;8.732;2023-07-31T02:15:59;2.55;;;1.23;;
43744;SDS011;29359;53.048;8.732;2023-07-31T02:18:02;4.40;;;1.40;;
43744;SDS011;29359;53.048;8.732;2023-07-31T02:20:05;2.28;;;1.23;;
43744;SDS011;29359;53.048;8.732;2023-07-31T02:22:08;3.67;;;1.45;;
43744;SDS011;29359;53.048;8.732;2023-07-31T02:24:11;1.63;;;1.42;;
43744;SDS011;29359;53.048;8.732;2023-07-31T02:26:14;1.20;;;1.02;;
43744;SDS011;29359;53.048;8.732;2023-07-31T02:28:17;2.38;;;1.48;;
43744;SDS011;29359;53.048;8.732;2023-07-31T02:30:19;1.90;;;1.40;;
43744;SDS011;29359;53.048;8.732;2023-07-31T02:32:22;1.75;;;1.40;;
43744;SDS011;29359;53.048;8.732;2023-07-31T02:34:26;2.03;;;1.50;;
43744;SDS011;29359;53.048;8.732;2023-07-31T02:36:29;6.28;;;1.60;;
43744;SDS011;29359;53.048;8.732;2023-07-31T02:38:32;6.30;;;1.40;;
43744;SDS011;29359;53.048;8.732;2023-07-31T02:40:35;2.95;;;1.38;;
43744;SDS011;29359;53.048;8.732;2023-07-31T02:42:38;1.58;;;1.23;;
43744;SDS011;29359;53.048;8.732;2023-07-31T02:44:40;2.58;;;1.67;;
43744;SDS011;29359;53.048;8.732;2023-07-31T02:46:43;3.40;;;1.55;;
43744;SDS011;29359;53.048;8.732;2023-07-31T02:48:47;13.10;;;1.85;;
43744;SDS011;29359;53.048;8.732;2023-07-31T02:50:49;1.45;;;1.35;;
43744;SDS011;29359;53.048;8.732;2023-07-31T02:52:52;1.75;;;1.30;;
43744;SDS011;29359;53.048;8.732;2023-07-31T02:54:55;2.97;;;1.60;;
43744;SDS011;29359;53.048;8.732;2023-07-31T02:56:58;3.10;;;1.70;;
43744;SDS011;29359;53.048;8.732;2023-07-31T02:59:00;2.10;;;1.55;;
43744;SDS011;29359;53.048;8.732;2023-07-31T03:01:03;4.18;;;1.48;;
43744;SDS011;29359;53.048;8.732;2023-07-31T03:03:06;1.77;;;1.42;;
43744;SDS011;29359;53.048;8.732;2023-07-31T03:05:11;1.60;;;1.40;;
43744;SDS011;29359;53.048;8.732;2023-07-31T03:07:14;2.25;;;1.50;;
43744;SDS011;29359;53.048;8.732;2023-07-31T03:09:16;2.83;;;1.33;;
43744;SDS011;29359;53.048;8.732;2023-07-31T03:11:19;3.08;;;1.50;;
43744;SDS011;29359;53.048;8.732;2023-07-31T03:13:22;1.58;;;1.40;;
43744;SDS011;29359;53.048;8.732;2023-07-31T03:15:25;1.73;;;1.60;;
43744;SDS011;29359;53.048;8.732;2023-07-31T03:17:28;2.00;;;1.45;;
43744;SDS011;29359;53.048;8.732;2023-07-31T03:19:31;3.42;;;1.70;;
43744;SDS011;29359;53.048;8.732;2023-07-31T03:21:35;1.70;;;1.27;;
43744;SDS011;29359;53.048;8.732;2023-07-31T03:23:38;1.50;;;1.30;;
43744;SDS011;29359;53.048;8.732;2023-07-31T03:25:41;7.15;;;2.03;;
43744;SDS011;29359;53.048;8.732;2023-07-31T03:27:58;1.70;;;1.40;;
43744;SDS011;29359;53.048;8.732;2023-07-31T03:30:02;1.95;;;1.33;;
43744;SDS011;29359;53.048;8.732;2023-07-31T03:32:05;2.53;;;1.63;;
43744;SDS011;29359;53.048;8.732;2023-07-31T03:34:08;1.52;;;1.35;;
43744;SDS011;29359;53.048;8.732;2023-07-31T03:36:11;2.17;;;1.23;;
43744;SDS011;29359;53.048;8.732;2023-07-31T03:38:15;5.78;;;1.67;;
43744;SDS011;29359;53.048;8.732;2023-07-31T03:40:18;5.18;;;1.20;;
43744;SDS011;29359;53.048;8.732;2023-07-31T03:42:21;1.70;;;1.42;;
43744;SDS011;29359;53.048;8.732;2023-07-31T03:44:24;2.67;;;1.67;;
43744;SDS011;29359;53.048;8.732;2023-07-31T03:46:26;1.70;;;1.60;;
43744;SDS011;29359;53.048;8.732;2023-07-31T03:48:29;1.98;;;1.77;;
43744;SDS011;29359;53.048;8.732;2023-07-31T03:50:32;1.83;;;1.50;;
43744;SDS011;29359;53.048;8.732;2023-07-31T03:52:35;2.67;;;1.65;;
43744;SDS011;29359;53.048;8.732;2023-07-31T03:54:39;2.28;;;1.52;;
43744;SDS011;29359;53.048;8.732;2023-07-31T03:56:42;2.17;;;1.50;;
43744;SDS011;29359;53.048;8.732;2023-07-31T03:58:45;1.88;;;1.52;;
43744;SDS011;29359;53.048;8.732;2023-07-31T04:00:47;9.20;;;1.90;;
43744;SDS011;29359;53.048;8.732;2023-07-31T04:02:50;3.45;;;1.92;;
43744;SDS011;29359;53.048;8.732;2023-07-31T04:04:53;1.85;;;1.75;;
43744;SDS011;29359;53.048;8.732;2023-07-31T04:06:56;2.00;;;1.90;;
43744;SDS011;29359;53.048;8.732;2023-07-31T04:08:59;2.97;;;1.80;;
43744;SDS011;29359;53.048;8.732;2023-07-31T04:11:03;3.13;;;1.70;;
43744;SDS011;29359;53.048;8.732;2023-07-31T04:13:06;2.65;;;1.98;;
43744;SDS011;29359;53.048;8.732;2023-07-31T04:15:09;4.22;;;2.45;;
43744;SDS011;29359;53.048;8.732;2023-07-31T04:17:12;2.83;;;2.50;;
43744;SDS011;29359;53.048;8.732;2023-07-31T04:19:15;2.22;;;2.00;;
43744;SDS011;29359;53.048;8.732;2023-07-31T04:21:18;3.28;;;1.75;;
43744;SDS011;29359;53.048;8.732;2023-07-31T04:23:21;1.77;;;1.67;;
43744;SDS011;29359;53.048;8.732;2023-07-31T04:25:24;1.73;;;1.55;;
43744;SDS011;29359;53.048;8.732;2023-07-31T04:27:28;2.92;;;1.77;;
43744;SDS011;29359;53.048;8.732;2023-07-31T04:29:30;2.08;;;1.83;;
43744;SDS011;29359;53.048;8.732;2023-07-31T04:31:33;1.73;;;1.63;;
43744;SDS011;29359;53.048;8.732;2023-07-31T04:33:39;3.15;;;1.70;;
43744;SDS011;29359;53.048;8.732;2023-07-31T04:35:48;4.90;;;1.70;;
43744;SDS011;29359;53.048;8.732;2023-07-31T04:37:53;2.38;;;1.70;;
43744;SDS011;29359;53.048;8.732;2023-07-31T04:39:55;1.48;;;1.27;;
43744;SDS011;29359;53.048;8.732;2023-07-31T04:41:58;1.95;;;1.70;;
43744;SDS011;29359;53.048;8.732;2023-07-31T04:44:02;3.85;;;1.40;;
43744;SDS011;29359;53.048;8.732;2023-07-31T04:46:05;4.25;;;1.73;;
43744;SDS011;29359;53.048;8.732;2023-07-31T04:48:07;2.53;;;1.52;;
43744;SDS011;29359;53.048;8.732;2023-07-31T04:50:10;3.97;;;1.10;;
43744;SDS011;29359;53.048;8.732;2023-07-31T04:52:13;4.32;;;1.50;;
43744;SDS011;29359;53.048;8.732;2023-07-31T04:54:16;3.03;;;1.65;;
43744;SDS011;29359;53.048;8.732;2023-07-31T04:56:18;3.05;;;1.52;;
43744;SDS011;29359;53.048;8.732;2023-07-31T04:58:21;1.10;;;0.98;;
43744;SDS011;29359;53.048;8.732;2023-07-31T05:00:25;4.10;;;1.13;;
43744;SDS011;29359;53.048;8.732;2023-07-31T05:02:28;1.48;;;1.20;;
43744;SDS011;29359;53.048;8.732;2023-07-31T05:04:31;2.25;;;1.13;;
43744;SDS011;29359;53.048;8.732;2023-07-31T05:06:34;1.27;;;0.93;;
43744;SDS011;29359;53.048;8.732;2023-07-31T05:08:37;1.52;;;1.30;;
43744;SDS011;29359;53.048;8.732;2023-07-31T05:10:40;1.33;;;1.23;;
43744;SDS011;29359;53.048;8.732;2023-07-31T05:12:42;2.42;;;1.05;;
43744;SDS011;29359;53.048;8.732;2023-07-31T05:14:45;1.35;;;0.90;;
43744;SDS011;29359;53.048;8.732;2023-07-31T05:16:49;3.33;;;1.30;;
43744;SDS011;29359;53.048;8.732;2023-07-31T05:18:52;1.90;;;1.20;;
43744;SDS011;29359;53.048;8.732;2023-07-31T05:20:55;1.13;;;0.80;;
43744;SDS011;29359;53.048;8.732;2023-07-31T05:22:58;1.00;;;0.90;;
43744;SDS011;29359;53.048;8.732;2023-07-31T05:25:01;3.25;;;1.40;;
43744;SDS011;29359;53.048;8.732;2023-07-31T05:27:04;0.73;;;0.68;;
43744;SDS011;29359;53.048;8.732;2023-07-31T05:29:07;0.77;;;0.77;;
43744;SDS011;29359;53.048;8.732;2023-07-31T05:31:10;3.55;;;0.80;;
43744;SDS011;29359;53.048;8.732;2023-07-31T05:33:14;0.65;;;0.65;;
43744;SDS011;29359;53.048;8.732;2023-07-31T05:35:17;1.60;;;0.80;;
43744;SDS011;29359;53.048;8.732;2023-07-31T05:37:20;1.40;;;0.70;;
43744;SDS011;29359;53.048;8.732;2023-07-31T05:39:24;0.75;;;0.70;;
43744;SDS011;29359;53.048;8.732;2023-07-31T05:41:26;2.35;;;0.73;;
43744;SDS011;29359;53.048;8.732;2023-07-31T05:43:29;0.70;;;0.70;;
43744;SDS011;29359;53.048;8.732;2023-07-31T05:45:32;0.60;;;0.60;;
43744;SDS011;29359;53.048;8.732;2023-07-31T05:47:35;1.35;;;0.55;;
43744;SDS011;29359;53.048;8.732;2023-07-31T05:49:39;1.58;;;0.75;;
43744;SDS011;29359;53.048;8.732;2023-07-31T05:51:42;0.75;;;0.75;;
43744;SDS011;29359;53.048;8.732;2023-07-31T05:53:44;1.13;;;0.75;;
43744;SDS011;29359;53.048;8.732;2023-07-31T05:55:47;0.82;;;0.75;;
43744;SDS011;29359;53.048;8.732;2023-07-31T05:57:50;3.60;;;0.68;;
43744;SDS011;29359;53.048;8.732;2023-07-31T05:59:53;3.97;;;0.70;;
43744;SDS011;29359;53.048;8.732;2023-07-31T06:01:56;0.63;;;0.60;;
43744;SDS011;29359;53.048;8.732;2023-07-31T06:03:58;0.80;;;0.70;;
43744;SDS011;29359;53.048;8.732;2023-07-31T06:06:03;2.35;;;0.65;;
43744;SDS011;29359;53.048;8.732;2023-07-31T06:08:06;0.70;;;0.70;;
43744;SDS011;29359;53.048;8.732;2023-07-31T06:10:09;0.70;;;0.70;;
43744;SDS011;29359;53.048;8.732;2023-07-31T06:12:12;1.15;;;0.90;;
43744;SDS011;29359;53.048;8.732;2023-07-31T06:14:15;1.23;;;0.90;;
43744;SDS011;29359;53.048;8.732;2023-07-31T06:16:18;1.35;;;0.70;;
43744;SDS011;29359;53.048;8.732;2023-07-31T06:18:22;2.28;;;0.77;;
43744;SDS011;29359;53.048;8.732;2023-07-31T06:20:25;0.90;;;0.90;;
43744;SDS011;29359;53.048;8.732;2023-07-31T06:22:29;0.93;;;0.93;;
43744;SDS011;29359;53.048;8.732;2023-07-31T06:24:32;5.70;;;1.02;;
43744;SDS011;29359;53.048;8.732;2023-07-31T06:26:35;4.18;;;1.20;;
43744;SDS011;29359;53.048;8.732;2023-07-31T06:28:39;3.85;;;3.42;;
43744;SDS011;29359;53.048;8.732;2023-07-31T06:30:42;4.43;;;1.20;;
43744;SDS011;29359;53.048;8.732;2023-07-31T06:32:45;0.98;;;0.85;;
43744;SDS011;29359;53.048;8.732;2023-07-31T06:34:48;1.05;;;0.90;;
43744;SDS011;29359;53.048;8.732;2023-07-31T06:36:50;0.90;;;0.70;;
43744;SDS011;29359;53.048;8.732;2023-07-31T06:38:55;1.52;;;0.88;;
43744;SDS011;29359;53.048;8.732;2023-07-31T06:40:58;0.50;;;0.50;;
43744;SDS011;29359;53.048;8.732;2023-07-31T06:43:00;1.35;;;0.60;;
43744;SDS011;29359;53.048;8.732;2023-07-31T06:45:09;0.50;;;0.50;;
43744;SDS011;29359;53.048;8.732;2023-07-31T06:47:12;2.28;;;0.50;;
43744;SDS011;29359;53.048;8.732;2023-07-31T06:49:15;0.60;;;0.60;;
43744;SDS011;29359;53.048;8.732;2023-07-31T06:51:18;2.05;;;0.50;;
43744;SDS011;29359;53.048;8.732;2023-07-31T06:53:21;2.42;;;1.27;;
43744;SDS011;29359;53.048;8.732;2023-07-31T06:55:25;1.65;;;0.50;;
43744;SDS011;29359;53.048;8.732;2023-07-31T06:57:28;0.40;;;0.40;;
43744;SDS011;29359;53.048;8.732;2023-07-31T06:59:30;1.95;;;0.50;;
43744;SDS011;29359;53.048;8.732;2023-07-31T07:01:33;1.25;;;0.40;;
43744;SDS011;29359;53.048;8.732;2023-07-31T07:03:35;0.50;;;0.43;;
43744;SDS011;29359;53.048;8.732;2023-07-31T07:05:38;1.27;;;0.50;;
43744;SDS011;29359;53.048;8.732;2023-07-31T07:07:40;0.40;;;0.40;;
43744;SDS011;29359;53.048;8.732;2023-07-31T07:09:42;0.43;;;0.38;;
43744;SDS011;29359;53.048;8.732;2023-07-31T07:11:47;1.08;;;0.50;;
43744;SDS011;29359;53.048;8.732;2023-07-31T07:13:49;0.50;;;0.50;;
43744;SDS011;29359;53.048;8.732;2023-07-31T07:15:52;0.63;;;0.55;;
43744;SDS011;29359;53.048;8.732;2023-07-31T07:17:55;0.65;;;0.57;;
43744;SDS011;29359;53.048;8.732;2023-07-31T07:19:58;2.00;;;0.52;;
43744;SDS011;29359;53.048;8.732;2023-07-31T07:22:01;3.28;;;0.80;;
43744;SDS011;29359;53.048;8.732;2023-07-31T07:24:04;1.00;;;0.70;;
43744;SDS011;29359;53.048;8.732;2023-07-31T07:26:07;0.85;;;0.80;;
43744;SDS011;29359;53.048;8.732;2023-07-31T07:28:10;1.83;;;0.80;;
43744;SDS011;29359;53.048;8.732;2023-07-31T07:30:13;6.32;;;1.10;;
43744;SDS011;29359;53.048;8.732;2023-07-31T07:32:16;1.20;;;1.02;;
43744;SDS011;29359;53.048;8.732;2023-07-31T07:34:22;2.08;;;1.27;;
43744;SDS011;29359;53.048;8.732;2023-07-31T07:36:24;5.45;;;2.03;;
43744;SDS011;29359;53.048;8.732;2023-07-31T07:38:30;5.07;;;2.05;;
43744;SDS011;29359;53.048;8.732;2023-07-31T07:40:33;5.60;;;2.28;;
43744;SDS011;29359;53.048;8.732;2023-07-31T07:42:40;7.07;;;2.97;;
43744;SDS011;29359;53.048;8.732;2023-07-31T07:44:44;3.80;;;2.00;;
43744;SDS011;29359;53.048;8.732;2023-07-31T07:46:47;4.00;;;2.78;;
43744;SDS011;29359;53.048;8.732;2023-07-31T07:48:50;4.55;;;3.00;;
43744;SDS011;29359;53.048;8.732;2023-07-31T07:50:53;5.18;;;2.50;;
43744;SDS011;29359;53.048;8.732;2023-07-31T07:52:56;11.13;;;4.50;;
43744;SDS011;29359;53.048;8.732;2023-07-31T07:54:58;7.47;;;3.65;;
43744;SDS011;29359;53.048;8.732;2023-07-31T07:57:02;10.82;;;4.22;;
43744;SDS011;29359;53.048;8.732;2023-07-31T07:59:05;9.02;;;4.18;;
43744;SDS011;29359;53.048;8.732;2023-07-31T08:01:09;9.35;;;4.78;;
43744;SDS011;29359;53.048;8.732;2023-07-31T08:03:12;17.08;;;4.93;;
43744;SDS011;29359;53.048;8.732;2023-07-31T08:05:15;16.02;;;5.50;;
43744;SDS011;29359;53.048;8.732;2023-07-31T08:07:18;13.65;;;5.50;;
43744;SDS011;29359;53.048;8.732;2023-07-31T08:09:21;16.10;;;6.40;;
43744;SDS011;29359;53.048;8.732;2023-07-31T08:11:24;16.63;;;6.57;;
43744;SDS011;29359;53.048;8.732;2023-07-31T08:13:27;13.43;;;6.10;;
43744;SDS011;29359;53.048;8.732;2023-07-31T08:15:30;14.05;;;5.85;;
43744;SDS011;29359;53.048;8.732;2023-07-31T08:17:34;13.02;;;5.88;;
43744;SDS011;29359;53.048;8.732;2023-07-31T08:19:37;16.88;;;7.20;;
43744;SDS011;29359;53.048;8.732;2023-07-31T08:21:40;15.95;;;6.72;;
43744;SDS011;29359;53.048;8.732;2023-07-31T08:23:42;16.05;;;6.28;;
43744;SDS011;29359;53.048;8.732;2023-07-31T08:25:44;16.45;;;6.97;;
43744;SDS011;29359;53.048;8.732;2023-07-31T08:27:47;18.13;;;6.85;;
43744;SDS011;29359;53.048;8.732;2023-07-31T08:29:51;18.10;;;7.05;;
43744;SDS011;29359;53.048;8.732;2023-07-31T08:31:54;23.23;;;7.28;;
43744;SDS011;29359;53.048;8.732;2023-07-31T08:33:57;14.93;;;7.30;;
43744;SDS011;29359;53.048;8.732;2023-07-31T08:36:00;15.38;;;7.00;;
43744;SDS011;29359;53.048;8.732;2023-07-31T08:38:03;18.77;;;6.70;;
43744;SDS011;29359;53.048;8.732;2023-07-31T08:40:06;20.73;;;7.30;;
43744;SDS011;29359;53.048;8.732;2023-07-31T08:42:10;19.67;;;7.75;;
43744;SDS011;29359;53.048;8.732;2023-07-31T08:44:13;13.27;;;6.82;;
43744;SDS011;29359;53.048;8.732;2023-07-31T08:46:17;20.35;;;7.35;;
43744;SDS011;29359;53.048;8.732;2023-07-31T08:48:23;17.58;;;7.28;;
43744;SDS011;29359;53.048;8.732;2023-07-31T08:50:27;18.73;;;6.78;;
43744;SDS011;29359;53.048;8.732;2023-07-31T08:52:30;16.52;;;6.68;;
43744;SDS011;29359;53.048;8.732;2023-07-31T08:54:33;14.48;;;6.85;;
43744;SDS011;29359;53.048;8.732;2023-07-31T08:56:35;14.98;;;6.97;;
43744;SDS011;29359;53.048;8.732;2023-07-31T08:58:39;16.63;;;6.40;;
43744;SDS011;29359;53.048;8.732;2023-07-31T09:00:42;20.73;;;6.43;;
43744;SDS011;29359;53.048;8.732;2023-07-31T09:02:49;12.45;;;6.28;;
43744;SDS011;29359;53.048;8.732;2023-07-31T09:04:57;15.15;;;6.25;;
43744;SDS011;29359;53.048;8.732;2023-07-31T09:07:02;12.43;;;5.78;;
43744;SDS011;29359;53.048;8.732;2023-07-31T09:09:06;14.57;;;5.60;;
43744;SDS011;29359;53.048;8.732;2023-07-31T09:11:08;13.10;;;5.53;;
43744;SDS011;29359;53.048;8.732;2023-07-31T09:13:11;14.05;;;4.88;;
43744;SDS011;29359;53.048;8.732;2023-07-31T09:15:14;10.13;;;5.22;;
43744;SDS011;29359;53.048;8.732;2023-07-31T09:17:32;9.67;;;4.93;;
43744;SDS011;29359;53.048;8.732;2023-07-31T09:19:37;15.20;;;5.30;;
43744;SDS011;29359;53.048;8.732;2023-07-31T09:21:45;12.63;;;4.68;;
43744;SDS011;29359;53.048;8.732;2023-07-31T09:23:50;9.07;;;4.70;;
43744;SDS011;29359;53.048;8.732;2023-07-31T09:25:55;17.48;;;5.10;;
43744;SDS011;29359;53.048;8.732;2023-07-31T09:27:59;11.40;;;4.70;;
43744;SDS011;29359;53.048;8.732;2023-07-31T09:30:02;9.13;;;4.20;;
43744;SDS011;29359;53.048;8.732;2023-07-31T09:32:06;13.93;;;3.72;;
43744;SDS011;29359;53.048;8.732;2023-07-31T09:34:18;13.85;;;4.07;;
43744;SDS011;29359;53.048;8.732;2023-07-31T09:36:21;9.35;;;3.92;;
43744;SDS011;29359;53.048;8.732;2023-07-31T09:38:26;19.52;;;3.83;;
43744;SDS011;29359;53.048;8.732;2023-07-31T09:40:30;12.73;;;4.28;;
43744;SDS011;29359;53.048;8.732;2023-07-31T09:42:35;10.43;;;4.47;;
43744;SDS011;29359;53.048;8.732;2023-07-31T09:44:38;9.68;;;3.80;;
43744;SDS011;29359;53.048;8.732;2023-07-31T09:46:42;6.45;;;3.40;;
43744;SDS011;29359;53.048;8.732;2023-07-31T09:48:45;9.50;;;3.55;;
43744;SDS011;29359;53.048;8.732;2023-07-31T09:50:48;7.05;;;3.17;;
43744;SDS011;29359;53.048;8.732;2023-07-31T09:52:51;6.30;;;3.47;;
43744;SDS011;29359;53.048;8.732;2023-07-31T09:54:55;11.55;;;3.90;;
43744;SDS011;29359;53.048;8.732;2023-07-31T09:56:58;6.50;;;3.58;;
43744;SDS011;29359;53.048;8.732;2023-07-31T09:59:02;6.50;;;2.72;;
43744;SDS011;29359;53.048;8.732;2023-07-31T10:01:07;6.60;;;2.63;;
43744;SDS011;29359;53.048;8.732;2023-07-31T10:03:11;6.50;;;2.88;;
43744;SDS011;29359;53.048;8.732;2023-07-31T10:05:14;7.05;;;2.70;;
43744;SDS011;29359;53.048;8.732;2023-07-31T10:07:18;6.88;;;3.13;;
43744;SDS011;29359;53.048;8.732;2023-07-31T10:09:24;4.28;;;2.20;;
43744;SDS011;29359;53.048;8.732;2023-07-31T10:11:34;4.13;;;2.83;;
43744;SDS011;29359;53.048;8.732;2023-07-31T10:13:42;3.78;;;2.47;;
43744;SDS011;29359;53.048;8.732;2023-07-31T10:15:46;5.25;;;2.38;;
43744;SDS011;29359;53.048;8.732;2023-07-31T10:17:49;5.07;;;2.10;;
43744;SDS011;29359;53.048;8.732;2023-07-31T10:19:53;4.07;;;2.00;;
43744;SDS011;29359;53.048;8.732;2023-07-31T10:21:56;4.95;;;1.90;;
43744;SDS011;29359;53.048;8.732;2023-07-31T10:24:01;2.47;;;1.65;;
43744;SDS011;29359;53.048;8.732;2023-07-31T10:26:06;5.03;;;1.80;;
43744;SDS011;29359;53.048;8.732;2023-07-31T10:28:10;3.05;;;1.80;;
43744;SDS011;29359;53.048;8.732;2023-07-31T10:30:15;3.42;;;1.45;;
43744;SDS011;29359;53.048;8.732;2023-07-31T10:32:21;8.50;;;1.90;;
43744;SDS011;29359;53.048;8.732;2023-07-31T10:34:25;3.72;;;1.70;;
43744;SDS011;29359;53.048;8.732;2023-07-31T10:36:28;4.03;;;1.25;;
43744;SDS011;29359;53.048;8.732;2023-07-31T10:38:31;4.60;;;1.58;;
43744;SDS011;29359;53.048;8.732;2023-07-31T10:40:34;2.65;;;1.60;;
43744;SDS011;29359;53.048;8.732;2023-07-31T10:42:38;7.97;;;1.60;;
43744;SDS011;29359;53.048;8.732;2023-07-31T10:44:48;1.63;;;1.35;;
43744;SDS011;29359;53.048;8.732;2023-07-31T10:46:53;2.60;;;2.05;;
43744;SDS011;29359;53.048;8.732;2023-07-31T10:48:58;3.25;;;0.93;;
43744;SDS011;29359;53.048;8.732;2023-07-31T10:51:01;11.82;;;1.48;;
43744;SDS011;29359;53.048;8.732;2023-07-31T10:53:10;2.90;;;1.00;;
43744;SDS011;29359;53.048;8.732;2023-07-31T10:55:26;1.42;;;1.05;;
43744;SDS011;29359;53.048;8.732;2023-07-31T10:57:31;2.55;;;0.77;;
43744;SDS011;29359;53.048;8.732;2023-07-31T10:59:37;0.77;;;0.77;;
43744;SDS011;29359;53.048;8.732;2023-07-31T11:01:50;4.13;;;0.85;;
43744;SDS011;29359;53.048;8.732;2023-07-31T11:03:56;1.77;;;1.00;;
43744;SDS011;29359;53.048;8.732;2023-07-31T11:06:00;0.80;;;0.70;;
43744;SDS011;29359;53.048;8.732;2023-07-31T11:08:09;0.80;;;0.68;;
43744;SDS011;29359;53.048;8.732;2023-07-31T11:10:13;0.50;;;0.50;;
43744;SDS011;29359;53.048;8.732;2023-07-31T11:12:18;1.38;;;0.60;;
43744;SDS011;29359;53.048;8.732;2023-07-31T11:14:21;0.50;;;0.50;;
43744;SDS011;29359;53.048;8.732;2023-07-31T11:16:25;1.08;;;0.45;;
43744;SDS011;29359;53.048;8.732;2023-07-31T11:18:28;0.57;;;0.50;;
43744;SDS011;29359;53.048;8.732;2023-07-31T11:20:32;0.40;;;0.40;;
43744;SDS011;29359;53.048;8.732;2023-07-31T11:22:36;3.55;;;0.47;;
43744;SDS011;29359;53.048;8.732;2023-07-31T11:24:39;0.70;;;0.38;;
43744;SDS011;29359;53.048;8.732;2023-07-31T11:26:47;0.50;;;0.30;;
43744;SDS011;29359;53.048;8.732;2023-07-31T11:28:51;1.13;;;0.60;;
43744;SDS011;29359;53.048;8.732;2023-07-31T11:30:54;1.77;;;0.30;;
43744;SDS011;29359;53.048;8.732;2023-07-31T11:32:59;0.30;;;0.30;;
43744;SDS011;29359;53.048;8.732;2023-07-31T11:35:04;1.17;;;0.30;;
43744;SDS011;29359;53.048;8.732;2023-07-31T11:37:11;0.63;;;0.40;;
43744;SDS011;29359;53.048;8.732;2023-07-31T11:39:13;1.20;;;0.30;;
43744;SDS011;29359;53.048;8.732;2023-07-31T11:41:16;0.40;;;0.30;;
43744;SDS011;29359;53.048;8.732;2023-07-31T11:43:20;0.60;;;0.40;;
43744;SDS011;29359;53.048;8.732;2023-07-31T11:45:26;0.82;;;0.30;;
43744;SDS011;29359;53.048;8.732;2023-07-31T11:47:30;0.38;;;0.28;;
43744;SDS011;29359;53.048;8.732;2023-07-31T11:49:36;0.63;;;0.30;;
43744;SDS011;29359;53.048;8.732;2023-07-31T11:51:39;0.63;;;0.28;;
43744;SDS011;29359;53.048;8.732;2023-07-31T11:53:44;0.40;;;0.35;;
43744;SDS011;29359;53.048;8.732;2023-07-31T11:55:51;0.93;;;0.90;;
43744;SDS011;29359;53.048;8.732;2023-07-31T11:57:56;0.30;;;0.30;;
43744;SDS011;29359;53.048;8.732;2023-07-31T12:00:01;0.45;;;0.30;;
43744;SDS011;29359;53.048;8.732;2023-07-31T12:02:04;3.72;;;0.20;;
43744;SDS011;29359;53.048;8.732;2023-07-31T12:04:07;0.55;;;0.30;;
43744;SDS011;29359;53.048;8.732;2023-07-31T12:06:10;0.50;;;0.40;;
43744;SDS011;29359;53.048;8.732;2023-07-31T12:08:13;0.40;;;0.40;;
43744;SDS011;29359;53.048;8.732;2023-07-31T12:10:25;0.47;;;0.40;;
43744;SDS011;29359;53.048;8.732;2023-07-31T12:12:28;0.30;;;0.30;;
43744;SDS011;29359;53.048;8.732;2023-07-31T12:14:31;0.60;;;0.32;;
43744;SDS011;29359;53.048;8.732;2023-07-31T12:16:34;0.95;;;0.35;;
43744;SDS011;29359;53.048;8.732;2023-07-31T12:18:37;3.30;;;0.40;;
43744;SDS011;29359;53.048;8.732;2023-07-31T12:20:42;0.32;;;0.30;;
43744;SDS011;29359;53.048;8.732;2023-07-31T12:22:45;0.40;;;0.40;;
43744;SDS011;29359;53.048;8.732;2023-07-31T12:24:48;0.30;;;0.30;;
43744;SDS011;29359;53.048;8.732;2023-07-31T12:26:52;0.60;;;0.30;;